Pagina principale
METAR-TAF:

METAR-TAF

Aeroporti :

Piggs Peak, Swaziland

latitudine: 25-58-04S, longitudine: 31-15-03E, altezza: 1099 m

Osservazione

Il bollettino è stato emesso 48 minuti fa, alle 16:00 UTC
Vento 8 kt da est
Temperature 15°C
Umidità 72%
Pressione 1030 hPa

METAR: FDPP 311600Z AUTO 10008KT //// // ////// 15/10 Q1030

Ora: 18:48 (16:48 UTC)


TAF: mancante

Osservazioni e previsioni meteorologiche di più di 4000 aeroporti (messaggi METAR e TAF).

Le stazioni disponibili sono rappresentate dai dischi gialli e rossi sulla carta.

Puntare il mouse per vedere il nome della stazione.

Clicca sopra per visualizzare le osservazioni e previsioni meteorologiche.

Per cambiare la mappa : fare clic sui pulsanti verdi con una croce nera per ingrandire, il pulsante verde con un trattino per diminuire, o sulla freccia verde per le mappe adiacenti.


METAR-TAF: